Murton, United Kingdom
Current Conditions -  °F | °C
As of 5:50 PM on Thursday 27 Nov 2014 (Local Time) from EGXU Reporting Station
Overcast Overcast  
Wind Chill: 46°   Ceiling: 200
Heat Index: 46°   Visibility: 0.62mi
Dew Point: 46°   Wind: 2mph
Humidity: 100%   Direction: 230°SW
Pressure: 29.56"   Gusts: NA
Location:  53.97°N, 1.01°W
Report Text: EGXU 271750Z AUTO 23002KT 1000 // OVC002/// 08/08 Q1001
Loading
Personal Weather Stations






























Interactive Weather Map New forecast layout! Learn more

10-Day Weather Forecast

Advertisements
Track Severe Weather on mobile